Terminal Aerodrome Forecast
Issued by NWS Detroit/Pontiac, MI

Home | Current Version | Previous Version | Text Only | Print | Product List | Glossary On
Versions: 1 2 3 4 5 6 7 8 9 10 11 12 13 14 15 16 17
162
FTUS43 KDTX 032324
TAFFNT
TAF
KFNT 032324Z 0400/0424 22007KT P6SM SCT080 BKN200
     FM040400 20005KT P6SM SCT060 BKN100
     FM041000 18006KT P6SM -SHRA SCT030 OVC060
     FM041400 17005KT 5SM SHRA SCT012 BKN022 OVC040
     FM041900 07006KT 4SM SHRA SCT008 BKN014 OVC030=

USA.gov is the U.S. government's official web portal to all federal, state and local government web resources and services.